createdAt,value
2018-11-29T00:00:36.616Z,88.76
2018-11-29T00:03:06.829Z,89.13
2018-11-29T00:05:36.021Z,88.54
2018-11-29T00:08:05.405Z,88.93
2018-11-29T00:10:34.764Z,89.35
2018-11-29T00:13:04.043Z,89.17
2018-11-29T00:15:33.192Z,88.70
2018-11-29T00:18:02.400Z,88.15
2018-11-29T00:20:31.633Z,87.65
2018-11-29T00:23:00.822Z,88.19
2018-11-29T00:25:30.284Z,88.18
2018-11-29T00:27:59.503Z,87.66
2018-11-29T00:30:28.733Z,88.46
2018-11-29T00:32:57.760Z,88.63
2018-11-29T00:35:26.892Z,88.59
2018-11-29T00:37:56.117Z,89.09
2018-11-29T00:40:25.848Z,88.76
2018-11-29T00:42:55.162Z,88.48
2018-11-29T00:45:24.936Z,89.40
2018-11-29T00:47:54.452Z,89.73
2018-11-29T00:50:23.886Z,89.31
2018-11-29T00:52:53.136Z,88.69
2018-11-29T00:55:24.153Z,88.61
2018-11-29T00:57:53.728Z,90.74
2018-11-29T01:00:24.741Z,89.72
2018-11-29T01:02:54.342Z,89.44
2018-11-29T01:05:23.536Z,89.80
2018-11-29T01:07:52.735Z,90.26
2018-11-29T01:10:22.228Z,91.44
2018-11-29T01:12:51.422Z,91.49
2018-11-29T01:15:21.436Z,90.87
2018-11-29T01:17:51.423Z,90.59
2018-11-29T01:20:21.517Z,90.23
2018-11-29T01:22:50.732Z,91.24
2018-11-29T01:25:20.349Z,91.09
2018-11-29T01:27:50.864Z,91.16
2018-11-29T01:30:21.540Z,90.96
2018-11-29T01:32:50.712Z,91.13
2018-11-29T01:35:20.696Z,89.98
2018-11-29T01:37:50.234Z,90.80
2018-11-29T01:40:21.923Z,90.67
2018-11-29T01:42:55.596Z,90.24
2018-11-29T01:45:24.924Z,91.03
2018-11-29T01:47:54.088Z,90.02
2018-11-29T01:50:23.552Z,89.93
2018-11-29T01:52:52.814Z,91.03
2018-11-29T01:55:22.061Z,90.85
2018-11-29T01:57:51.545Z,90.61
2018-11-29T02:00:20.741Z,90.21
2018-11-29T02:02:52.869Z,92.25
2018-11-29T02:05:21.804Z,90.52
2018-11-29T02:07:51.202Z,90.54
2018-11-29T02:10:26.953Z,91.91
2018-11-29T02:12:56.552Z,91.90
2018-11-29T02:15:25.829Z,92.04
2018-11-29T02:17:55.020Z,92.11
2018-11-29T02:20:24.089Z,92.21
2018-11-29T02:22:53.188Z,92.81
2018-11-29T02:25:22.571Z,91.78
2018-11-29T02:27:51.740Z,91.52
2018-11-29T02:30:22.957Z,92.23
2018-11-29T02:32:53.034Z,92.39
2018-11-29T02:35:22.160Z,92.62
2018-11-29T02:37:51.600Z,93.48
2018-11-29T02:40:20.957Z,92.55
2018-11-29T02:42:50.713Z,91.94
2018-11-29T02:45:21.801Z,92.15
2018-11-29T02:47:51.178Z,91.47
2018-11-29T02:50:20.028Z,92.52
2018-11-29T02:52:49.173Z,93.29
2018-11-29T02:55:18.552Z,92.71
2018-11-29T02:57:47.811Z,91.57
2018-11-29T03:00:17.824Z,91.81
2018-11-29T03:02:46.961Z,92.38
2018-11-29T03:05:16.550Z,91.68
2018-11-29T03:07:46.137Z,92.74
2018-11-29T03:10:15.818Z,92.90
2018-11-29T03:12:45.201Z,94.32
2018-11-29T03:15:15.298Z,93.49
2018-11-29T03:17:44.886Z,93.55
2018-11-29T03:20:14.977Z,94.07
2018-11-29T03:22:44.268Z,94.76
2018-11-29T03:25:16.434Z,94.08
2018-11-29T03:27:46.097Z,94.99
2018-11-29T03:30:16.422Z,95.96
2018-11-29T03:32:45.744Z,96.35
2018-11-29T03:35:15.733Z,97.27
2018-11-29T03:37:44.925Z,97.67
2018-11-29T03:40:15.715Z,98.84
2018-11-29T03:42:45.845Z,98.61
2018-11-29T03:45:15.934Z,98.05
2018-11-29T03:47:45.469Z,97.25
2018-11-29T03:50:17.172Z,97.87
2018-11-29T03:52:46.716Z,97.66
2018-11-29T03:55:15.924Z,97.30
2018-11-29T03:57:45.265Z,97.22
2018-11-29T04:00:15.370Z,98.76
2018-11-29T04:02:45.876Z,98.31
2018-11-29T04:05:15.377Z,98.01
2018-11-29T04:07:44.668Z,98.10
2018-11-29T04:10:15.662Z,97.66
2018-11-29T04:12:44.788Z,98.23
2018-11-29T04:15:14.858Z,96.92
2018-11-29T04:17:44.519Z,97.13
2018-11-29T04:20:16.641Z,95.37
2018-11-29T04:22:46.272Z,96.58
2018-11-29T04:25:16.037Z,95.82
2018-11-29T04:27:45.336Z,95.60
2018-11-29T04:30:15.680Z,96.96
2018-11-29T04:32:45.053Z,97.93
2018-11-29T04:35:14.689Z,97.18
2018-11-29T04:37:44.128Z,97.69
2018-11-29T04:40:17.086Z,97.72
2018-11-29T04:42:46.772Z,97.45
2018-11-29T04:45:16.797Z,98.20
2018-11-29T04:47:46.212Z,96.86
2018-11-29T04:50:16.519Z,97.31
2018-11-29T04:52:45.713Z,96.80
2018-11-29T04:55:15.024Z,97.82
2018-11-29T04:57:44.136Z,97.61
2018-11-29T05:00:16.202Z,98.47
2018-11-29T05:02:45.960Z,98.45
2018-11-29T05:05:15.233Z,99.87
2018-11-29T05:07:44.089Z,98.74
2018-11-29T05:10:17.044Z,98.81
2018-11-29T05:12:47.088Z,98.58
2018-11-29T05:15:16.364Z,97.50
2018-11-29T05:17:46.058Z,97.51
2018-11-29T05:20:15.216Z,96.43
2018-11-29T05:22:44.856Z,95.78
2018-11-29T05:25:14.113Z,96.28
2018-11-29T05:27:43.239Z,96.08
2018-11-29T05:30:13.540Z,95.60
2018-11-29T05:32:42.951Z,93.08
2018-11-29T05:35:13.049Z,92.12
2018-11-29T05:37:42.598Z,93.54
2018-11-29T05:40:14.180Z,93.32
2018-11-29T05:42:43.532Z,93.62
2018-11-29T05:45:12.920Z,93.38
2018-11-29T05:47:42.472Z,93.55
2018-11-29T05:50:12.396Z,93.35
2018-11-29T05:52:42.096Z,93.15
2018-11-29T05:55:12.883Z,92.55
2018-11-29T05:57:42.297Z,92.23
2018-11-29T06:00:14.000Z,93.36
2018-11-29T06:02:43.706Z,93.71
2018-11-29T06:05:14.304Z,94.42
2018-11-29T06:07:43.481Z,93.02
2018-11-29T06:10:12.968Z,93.23
2018-11-29T06:12:42.265Z,93.66
2018-11-29T06:15:12.465Z,92.61
2018-11-29T06:17:42.150Z,94.27
2018-11-29T06:20:13.819Z,92.79
2018-11-29T06:22:43.103Z,93.11
2018-11-29T06:25:12.362Z,92.41
2018-11-29T06:27:41.991Z,92.28
2018-11-29T06:30:21.004Z,92.15
2018-11-29T06:32:52.366Z,92.44
2018-11-29T06:35:20.638Z,93.12
2018-11-29T06:37:49.928Z,92.52
2018-11-29T06:40:19.612Z,92.82
2018-11-29T06:42:49.064Z,92.34
2018-11-29T06:45:21.994Z,92.96
2018-11-29T06:47:52.225Z,92.34
2018-11-29T06:50:21.579Z,92.56
2018-11-29T06:52:51.687Z,91.12
2018-11-29T06:55:21.885Z,91.53
2018-11-29T06:57:51.317Z,90.12
2018-11-29T07:00:31.787Z,89.40
2018-11-29T07:03:00.933Z,88.87
2018-11-29T07:05:30.041Z,89.12
2018-11-29T07:07:59.168Z,88.92
2018-11-29T07:10:32.392Z,89.18
2018-11-29T07:13:02.140Z,88.24
2018-11-29T07:15:31.473Z,87.71
2018-11-29T07:18:00.689Z,88.70
2018-11-29T07:20:30.283Z,88.33
2018-11-29T07:22:59.602Z,87.96
2018-11-29T07:25:28.865Z,85.99
2018-11-29T07:27:58.094Z,88.17
2018-11-29T07:30:27.416Z,86.08
2018-11-29T07:32:56.665Z,86.59
2018-11-29T07:35:25.927Z,87.23
2018-11-29T07:37:55.192Z,87.21
2018-11-29T07:40:24.513Z,86.84
2018-11-29T07:42:55.621Z,86.24
2018-11-29T07:45:25.058Z,86.96
2018-11-29T07:47:54.220Z,86.07
2018-11-29T07:50:24.283Z,86.99
2018-11-29T07:52:53.466Z,86.52
2018-11-29T07:55:23.173Z,84.47
2018-11-29T07:57:54.336Z,85.17
2018-11-29T08:00:23.595Z,85.09
2018-11-29T08:02:52.681Z,84.32
2018-11-29T08:05:22.067Z,83.34
2018-11-29T08:07:51.509Z,84.39
2018-11-29T08:10:21.219Z,83.68
2018-11-29T08:12:50.958Z,82.79
2018-11-29T08:15:21.480Z,83.64
2018-11-29T08:17:50.849Z,80.54
2018-11-29T08:20:21.069Z,82.62
2018-11-29T08:22:50.297Z,80.67
2018-11-29T08:25:19.629Z,82.32
2018-11-29T08:27:49.036Z,81.28
2018-11-29T08:30:18.449Z,82.34
2018-11-29T08:32:47.632Z,80.89
2018-11-29T08:35:17.256Z,83.14
2018-11-29T08:37:47.218Z,80.32
2018-11-29T08:40:18.741Z,80.45
2018-11-29T08:42:47.990Z,80.50
2018-11-29T08:45:17.382Z,81.19
2018-11-29T08:47:47.233Z,80.41
2018-11-29T08:50:16.736Z,78.54
2018-11-29T08:52:46.637Z,78.45
2018-11-29T08:55:16.909Z,78.23
2018-11-29T08:57:46.432Z,78.27
2018-11-29T09:00:16.417Z,79.87
2018-11-29T09:02:45.689Z,80.09
2018-11-29T09:05:15.009Z,80.21
2018-11-29T09:07:44.999Z,79.17
2018-11-29T09:10:17.219Z,80.85
2018-11-29T09:12:46.669Z,81.30
2018-11-29T09:15:16.576Z,79.59
2018-11-29T09:17:45.971Z,81.49
2018-11-29T09:20:19.300Z,79.97
2018-11-29T09:22:48.936Z,80.37
2018-11-29T09:25:19.105Z,81.38
2018-11-29T09:27:48.487Z,80.92
2018-11-29T09:30:18.593Z,80.12
2018-11-29T09:32:48.613Z,80.13
2018-11-29T09:35:17.966Z,77.95
2018-11-29T09:37:47.470Z,80.15
2018-11-29T09:40:17.368Z,78.59
2018-11-29T09:42:46.917Z,78.11
2018-11-29T09:45:23.310Z,79.58
2018-11-29T09:47:53.629Z,78.53
2018-11-29T09:50:23.060Z,79.16
2018-11-29T09:52:52.555Z,79.78
2018-11-29T09:55:21.912Z,80.43
2018-11-29T09:57:51.459Z,78.49
2018-11-29T10:00:27.892Z,81.33
2018-11-29T10:03:00.643Z,79.83
2018-11-29T10:05:30.756Z,79.20
2018-11-29T10:08:00.084Z,79.67
2018-11-29T10:10:29.264Z,79.83
2018-11-29T10:12:58.769Z,79.77
2018-11-29T10:15:27.864Z,78.85
2018-11-29T10:17:57.057Z,78.84
2018-11-29T10:20:26.998Z,78.90
2018-11-29T10:22:56.315Z,78.44
2018-11-29T10:25:25.720Z,80.54
2018-11-29T10:27:59.928Z,78.87
2018-11-29T10:30:31.665Z,78.76
2018-11-29T10:33:01.045Z,77.52
2018-11-29T10:35:30.202Z,78.66
2018-11-29T10:37:59.463Z,78.67
2018-11-29T10:40:28.959Z,76.51
2018-11-29T10:42:58.171Z,77.35
2018-11-29T10:45:27.357Z,75.97
2018-11-29T10:47:57.090Z,77.61
2018-11-29T10:50:26.427Z,76.68
2018-11-29T10:52:55.745Z,76.47
2018-11-29T10:55:25.048Z,78.59
2018-11-29T10:57:54.306Z,77.58
2018-11-29T11:00:29.839Z,78.84
2018-11-29T11:03:07.732Z,80.14
2018-11-29T11:05:37.627Z,80.79
2018-11-29T11:08:08.966Z,81.83
2018-11-29T11:10:38.779Z,81.34
2018-11-29T11:13:08.159Z,84.14
2018-11-29T11:15:37.587Z,82.16
2018-11-29T11:18:08.152Z,82.35
2018-11-29T11:20:37.486Z,82.91
2018-11-29T11:23:06.680Z,81.78
2018-11-29T11:25:36.124Z,83.18
2018-11-29T11:28:06.208Z,83.30
2018-11-29T11:30:35.820Z,84.93
2018-11-29T11:33:05.160Z,84.61
2018-11-29T11:35:34.733Z,85.75
2018-11-29T11:38:04.031Z,85.93
2018-11-29T11:40:33.265Z,86.38
2018-11-29T11:43:05.219Z,86.42
2018-11-29T11:45:31.636Z,87.58
2018-11-29T11:48:03.423Z,88.50
2018-11-29T11:50:30.387Z,88.76
2018-11-29T11:52:59.736Z,88.51
2018-11-29T11:55:30.240Z,88.02
2018-11-29T11:57:58.541Z,86.11
2018-11-29T12:00:29.782Z,85.07
2018-11-29T12:03:02.197Z,84.56
2018-11-29T12:05:31.354Z,84.28
2018-11-29T12:08:00.339Z,84.04
2018-11-29T12:10:29.518Z,85.02
2018-11-29T12:12:58.842Z,85.31
2018-11-29T12:15:28.233Z,86.18
2018-11-29T12:17:57.721Z,85.09
2018-11-29T12:20:26.957Z,86.03
2018-11-29T12:22:56.014Z,84.79
2018-11-29T12:25:25.229Z,85.56
2018-11-29T12:27:54.466Z,84.61
2018-11-29T12:30:25.813Z,85.08
2018-11-29T12:32:57.485Z,85.53
2018-11-29T12:35:26.794Z,85.43
2018-11-29T12:37:56.048Z,86.53
2018-11-29T12:40:25.240Z,87.67
2018-11-29T12:42:54.404Z,88.99
2018-11-29T12:45:23.678Z,88.27
2018-11-29T12:47:52.980Z,88.63
2018-11-29T12:50:24.643Z,87.28
2018-11-29T12:52:53.843Z,88.24
2018-11-29T12:55:24.378Z,87.91
2018-11-29T12:58:05.409Z,87.66
2018-11-29T13:00:24.660Z,86.82
2018-11-29T13:02:58.813Z,86.91
2018-11-29T13:05:28.772Z,85.01
2018-11-29T13:07:58.038Z,84.67
2018-11-29T13:10:28.858Z,83.74
2018-11-29T13:12:58.001Z,84.96
2018-11-29T13:15:31.512Z,84.42
2018-11-29T13:18:01.730Z,85.00
2018-11-29T13:20:32.615Z,85.23
2018-11-29T13:23:00.350Z,86.90
2018-11-29T13:25:29.879Z,85.56
2018-11-29T13:27:59.126Z,84.98
2018-11-29T13:30:28.309Z,85.24
2018-11-29T13:32:57.991Z,85.17
2018-11-29T13:35:33.520Z,84.77
2018-11-29T13:38:05.523Z,83.86
2018-11-29T13:40:35.002Z,84.04
2018-11-29T13:43:04.140Z,85.48
2018-11-29T13:45:33.449Z,87.25
2018-11-29T13:48:02.824Z,84.51
2018-11-29T13:50:32.049Z,85.05
2018-11-29T13:53:01.202Z,86.69
2018-11-29T13:55:30.453Z,86.06
2018-11-29T13:57:59.745Z,86.12
2018-11-29T14:00:29.009Z,85.75
2018-11-29T14:03:02.968Z,87.14
2018-11-29T14:05:32.140Z,87.61
2018-11-29T14:08:01.267Z,87.83
2018-11-29T14:10:30.518Z,87.73
2018-11-29T14:12:59.719Z,87.82
2018-11-29T14:15:29.796Z,88.09
2018-11-29T14:17:58.961Z,88.09
2018-11-29T14:20:28.368Z,88.15
2018-11-29T14:22:58.030Z,88.26
2018-11-29T14:25:27.077Z,88.83
2018-11-29T14:27:57.356Z,89.68
2018-11-29T14:30:28.826Z,89.47
2018-11-29T14:32:59.820Z,90.42
2018-11-29T14:35:29.091Z,89.93
2018-11-29T14:37:58.720Z,91.18
2018-11-29T14:40:28.972Z,90.07
2018-11-29T14:42:58.229Z,90.53
2018-11-29T14:45:27.984Z,91.15
2018-11-29T14:47:57.316Z,91.30
2018-11-29T14:50:44.563Z,91.41
2018-11-29T14:53:13.859Z,91.88
2018-11-29T14:55:43.133Z,92.73
2018-11-29T14:58:19.497Z,92.53
2018-11-29T15:00:43.741Z,92.31
2018-11-29T15:03:17.439Z,92.01
2018-11-29T15:05:46.911Z,92.04
2018-11-29T15:08:16.211Z,92.55
2018-11-29T15:10:45.356Z,91.09
2018-11-29T15:13:14.851Z,91.79
2018-11-29T15:15:44.420Z,92.07
2018-11-29T15:18:13.906Z,92.35
2018-11-29T15:20:44.341Z,92.52
2018-11-29T15:23:14.940Z,92.62
2018-11-29T15:25:44.117Z,93.34
2018-11-29T15:28:13.517Z,92.44
2018-11-29T15:30:43.176Z,92.96
2018-11-29T15:33:12.392Z,92.11
2018-11-29T15:35:41.695Z,92.95
2018-11-29T15:38:11.150Z,92.72
2018-11-29T15:40:40.388Z,92.04
2018-11-29T15:43:09.644Z,92.65
2018-11-29T15:45:39.236Z,92.63
2018-11-29T15:48:08.426Z,92.31
2018-11-29T15:50:37.793Z,91.32
2018-11-29T15:53:07.958Z,90.73
2018-11-29T15:55:37.202Z,90.72
2018-11-29T15:58:06.688Z,90.68
2018-11-29T16:00:36.067Z,91.69
2018-11-29T16:03:10.032Z,91.06
2018-11-29T16:05:41.256Z,90.47
2018-11-29T16:08:08.747Z,91.57
2018-11-29T16:10:37.676Z,90.87
2018-11-29T16:13:17.389Z,91.39
2018-11-29T16:15:47.064Z,90.81
2018-11-29T16:18:16.716Z,90.34
2018-11-29T16:20:46.010Z,90.89
2018-11-29T16:23:15.414Z,89.87
2018-11-29T16:25:44.836Z,89.56
2018-11-29T16:28:14.118Z,89.91
2018-11-29T16:30:46.994Z,89.45
2018-11-29T16:33:21.729Z,89.77
2018-11-29T16:35:51.282Z,89.87
2018-11-29T16:38:20.524Z,89.30
2018-11-29T16:40:49.728Z,89.22
2018-11-29T16:43:19.080Z,87.51
2018-11-29T16:45:48.228Z,89.63
2018-11-29T16:48:17.663Z,89.05
2018-11-29T16:50:47.357Z,88.69
2018-11-29T16:53:16.721Z,88.46
2018-11-29T16:55:46.144Z,89.00
2018-11-29T16:58:17.320Z,87.72
2018-11-29T17:00:46.905Z,87.49
2018-11-29T17:03:16.172Z,87.35
2018-11-29T17:05:45.372Z,87.73
2018-11-29T17:08:14.725Z,87.43
2018-11-29T17:10:43.876Z,87.23
2018-11-29T17:13:16.094Z,86.61
2018-11-29T17:15:45.242Z,86.29
2018-11-29T17:18:14.441Z,86.95
2018-11-29T17:20:43.914Z,87.60
2018-11-29T17:23:13.533Z,87.25
2018-11-29T17:25:42.683Z,87.78
2018-11-29T17:28:12.104Z,86.39
2018-11-29T17:30:41.422Z,86.02
2018-11-29T17:33:10.904Z,86.56
2018-11-29T17:35:40.453Z,86.05
2018-11-29T17:38:10.402Z,86.58
2018-11-29T17:40:40.210Z,85.71
2018-11-29T17:43:09.960Z,85.95
2018-11-29T17:45:39.257Z,86.09
2018-11-29T17:48:09.977Z,85.82
2018-11-29T17:50:40.410Z,86.34
2018-11-29T17:53:09.851Z,85.80
2018-11-29T17:55:38.784Z,86.26
2018-11-29T17:58:09.553Z,86.52
2018-11-29T18:00:38.866Z,86.15
2018-11-29T18:03:08.617Z,86.99
2018-11-29T18:05:38.216Z,85.67
2018-11-29T18:08:07.464Z,87.43
2018-11-29T18:10:38.461Z,88.13
2018-11-29T18:13:15.976Z,88.90
2018-11-29T18:15:45.343Z,88.29
2018-11-29T18:18:14.753Z,89.84
2018-11-29T18:20:44.003Z,89.22
2018-11-29T18:23:13.233Z,88.54
2018-11-29T18:25:42.396Z,88.52
2018-11-29T18:28:12.232Z,89.89
2018-11-29T18:30:41.576Z,90.00
2018-11-29T18:33:10.777Z,88.31
2018-11-29T18:35:40.012Z,87.83
2018-11-29T18:38:09.280Z,87.74
2018-11-29T18:40:38.439Z,87.65
2018-11-29T18:43:09.327Z,86.85
2018-11-29T18:45:38.614Z,87.29
2018-11-29T18:48:08.196Z,86.83
2018-11-29T18:50:37.676Z,87.28
2018-11-29T18:53:07.347Z,87.39
2018-11-29T18:55:36.653Z,85.82
2018-11-29T18:58:06.418Z,86.00
2018-11-29T19:00:36.671Z,87.59
2018-11-29T19:03:06.289Z,86.38
2018-11-29T19:05:35.589Z,85.74
2018-11-29T19:08:04.752Z,86.26
2018-11-29T19:10:34.068Z,87.26
2018-11-29T19:13:05.685Z,86.87
2018-11-29T19:15:34.746Z,86.09
2018-11-29T19:18:03.952Z,86.13
2018-11-29T19:20:33.469Z,85.60
2018-11-29T19:23:02.745Z,85.69
2018-11-29T19:25:32.108Z,84.67
2018-11-29T19:28:01.424Z,84.84
2018-11-29T19:30:31.393Z,84.75
2018-11-29T19:33:09.193Z,85.36
2018-11-29T19:35:38.332Z,85.32
2018-11-29T19:38:07.626Z,85.19
2018-11-29T19:40:37.011Z,85.60
2018-11-29T19:43:06.899Z,86.95
2018-11-29T19:45:36.197Z,85.65
2018-11-29T19:48:06.137Z,85.45
2018-11-29T19:50:35.412Z,85.79
2018-11-29T19:53:05.825Z,85.23
2018-11-29T19:55:35.733Z,84.24
2018-11-29T19:58:05.069Z,84.58
2018-11-29T20:00:34.229Z,84.60
2018-11-29T20:03:03.657Z,85.62
2018-11-29T20:05:32.876Z,86.22
2018-11-29T20:08:02.157Z,86.48
2018-11-29T20:10:31.413Z,85.48
2018-11-29T20:13:06.953Z,85.97
2018-11-29T20:15:38.084Z,86.07
2018-11-29T20:18:07.917Z,85.61
2018-11-29T20:20:37.165Z,85.21
2018-11-29T20:23:06.758Z,85.54
2018-11-29T20:25:35.761Z,86.06
2018-11-29T20:28:04.948Z,86.68
2018-11-29T20:30:34.341Z,85.79
2018-11-29T20:33:03.525Z,84.90
2018-11-29T20:35:32.636Z,84.58
2018-11-29T20:38:01.905Z,84.03
2018-11-29T20:40:33.049Z,85.17
2018-11-29T20:43:02.648Z,83.61
2018-11-29T20:45:50.560Z,83.48
2018-11-29T20:48:22.348Z,83.91
2018-11-29T20:50:52.266Z,82.67
2018-11-29T20:53:25.080Z,83.61
2018-11-29T20:55:54.430Z,83.81
2018-11-29T20:58:23.618Z,83.28
2018-11-29T21:00:53.149Z,83.68
2018-11-29T21:03:22.353Z,83.60
2018-11-29T21:05:51.501Z,84.40
2018-11-29T21:08:21.065Z,83.11
2018-11-29T21:10:50.227Z,83.75
2018-11-29T21:13:19.328Z,84.02
2018-11-29T21:15:48.813Z,84.03
2018-11-29T21:18:18.141Z,83.43
2018-11-29T21:20:47.317Z,83.33
2018-11-29T21:23:17.777Z,83.60
2018-11-29T21:25:47.458Z,83.73
2018-11-29T21:28:16.489Z,84.45
2018-11-29T21:30:45.868Z,83.78
2018-11-29T21:33:15.067Z,82.99
2018-11-29T21:35:44.365Z,83.23
2018-11-29T21:38:16.711Z,84.23
2018-11-29T21:40:50.117Z,84.55
2018-11-29T21:43:19.523Z,83.96
2018-11-29T21:45:48.619Z,84.18
2018-11-29T21:48:17.833Z,83.28
2018-11-29T21:50:47.017Z,83.58
2018-11-29T21:53:16.345Z,83.95
2018-11-29T21:55:45.557Z,84.02
2018-11-29T21:58:14.909Z,83.68
2018-11-29T22:00:44.133Z,83.62
2018-11-29T22:03:13.365Z,84.01
2018-11-29T22:05:42.749Z,83.62
2018-11-29T22:08:12.149Z,83.34
2018-11-29T22:10:41.125Z,81.92
2018-11-29T22:13:10.236Z,82.61
2018-11-29T22:15:39.549Z,82.64
2018-11-29T22:18:16.549Z,82.96
2018-11-29T22:20:45.728Z,83.23
2018-11-29T22:23:14.912Z,82.93
2018-11-29T22:25:44.525Z,83.22
2018-11-29T22:28:13.561Z,83.04
2018-11-29T22:30:42.732Z,83.28
2018-11-29T22:33:12.093Z,83.05
2018-11-29T22:35:41.257Z,82.30
2018-11-29T22:38:10.418Z,82.97
2018-11-29T22:40:39.546Z,82.80
2018-11-29T22:43:08.767Z,81.77
2018-11-29T22:45:38.041Z,82.37
2018-11-29T22:48:07.753Z,82.47
2018-11-29T22:50:36.908Z,82.89
2018-11-29T22:53:06.257Z,82.57
2018-11-29T22:55:36.046Z,82.69
2018-11-29T22:58:05.250Z,82.11
2018-11-29T23:00:40.611Z,82.33
2018-11-29T23:03:09.909Z,82.90
2018-11-29T23:05:39.172Z,81.88
2018-11-29T23:08:08.665Z,82.23
2018-11-29T23:10:37.917Z,82.62
2018-11-29T23:13:07.341Z,82.70
2018-11-29T23:15:37.037Z,82.10
2018-11-29T23:18:06.702Z,81.90
2018-11-29T23:20:35.917Z,81.98
2018-11-29T23:23:05.439Z,81.98
2018-11-29T23:25:34.953Z,82.59
2018-11-29T23:28:04.529Z,82.53
2018-11-29T23:30:33.869Z,82.51
2018-11-29T23:33:03.150Z,81.99
2018-11-29T23:35:32.564Z,82.05
2018-11-29T23:38:02.006Z,82.08
2018-11-29T23:40:31.285Z,82.65
2018-11-29T23:43:00.497Z,83.02
2018-11-29T23:45:29.802Z,83.35
2018-11-29T23:47:59.076Z,83.39
2018-11-29T23:50:28.165Z,84.11
2018-11-29T23:52:57.666Z,83.56
2018-11-29T23:55:26.882Z,83.17
2018-11-29T23:57:56.048Z,83.08
